Terminal Aerodrome Forecast
Issued by NWS

Home | Current Version | Previous Version | Text Only | Print | Product List | Glossary On
Versions: 1 2 3 4 5 6 7 8 9 10 11 12 13 14 15 16 17
200
FTUS43 KMQT 090528
TAFIWD
TAF
KIWD 090528Z 0906/1006 34009KT 2SM -SHSN OVC015
     FM091400 33011G17KT 3SM -SHSN OVC015
     FM092100 28010KT 3SM -SHSN OVC020
     FM100000 27006KT 6SM -SHSN BKN020
     FM100300 27007KT P6SM BKN020=

USA.gov is the U.S. government's official web portal to all federal, state and local government web resources and services.